createdAt,value
2019-03-23T00:00:06.039Z,35.58
2019-03-23T00:02:34.658Z,29.72
2019-03-23T00:05:03.266Z,34.78
2019-03-23T00:07:31.744Z,31.45
2019-03-23T00:10:00.474Z,35.80
2019-03-23T00:12:29.028Z,30.08
2019-03-23T00:14:57.481Z,28.52
2019-03-23T00:17:25.957Z,31.40
2019-03-23T00:19:54.664Z,33.53
2019-03-23T00:22:23.305Z,31.68
2019-03-23T00:24:51.768Z,25.55
2019-03-23T00:27:20.540Z,27.65
2019-03-23T00:29:49.103Z,27.77
2019-03-23T00:32:17.551Z,32.33
2019-03-23T00:34:46.028Z,30.08
2019-03-23T00:37:14.572Z,25.40
2019-03-23T00:39:43.064Z,28.25
2019-03-23T00:42:11.817Z,28.20
2019-03-23T00:44:40.314Z,28.98
2019-03-23T00:47:08.866Z,32.67
2019-03-23T00:49:37.343Z,30.68
2019-03-23T00:52:06.132Z,30.88
2019-03-23T00:54:35.402Z,28.65
2019-03-23T00:57:03.912Z,31.50
2019-03-23T00:59:32.725Z,27.07
2019-03-23T01:02:01.204Z,30.32
2019-03-23T01:04:29.750Z,31.40
2019-03-23T01:06:58.381Z,36.23
2019-03-23T01:09:27.163Z,31.07
2019-03-23T01:11:55.919Z,31.33
2019-03-23T01:14:24.367Z,29.42
2019-03-23T01:16:54.215Z,28.98
2019-03-23T01:19:22.663Z,35.20
2019-03-23T01:21:51.136Z,31.62
2019-03-23T01:24:19.656Z,28.30
2019-03-23T01:26:48.226Z,29.92
2019-03-23T01:29:16.680Z,30.15
2019-03-23T01:31:45.166Z,26.25
2019-03-23T01:34:13.616Z,27.67
2019-03-23T01:36:42.069Z,31.85
2019-03-23T01:39:10.540Z,32.00
2019-03-23T01:41:38.984Z,29.02
2019-03-23T01:44:07.461Z,29.30
2019-03-23T01:46:36.730Z,29.35
2019-03-23T01:49:05.201Z,30.48
2019-03-23T01:51:33.712Z,29.27
2019-03-23T01:54:02.187Z,29.15
2019-03-23T01:56:30.636Z,27.20
2019-03-23T01:58:59.106Z,29.10
2019-03-23T02:01:27.660Z,27.45
2019-03-23T02:03:56.456Z,28.32
2019-03-23T02:06:24.912Z,31.95
2019-03-23T02:08:53.381Z,26.55
2019-03-23T02:11:21.832Z,27.05
2019-03-23T02:13:50.369Z,29.40
2019-03-23T02:16:18.848Z,28.77
2019-03-23T02:18:47.377Z,30.12
2019-03-23T02:21:15.857Z,29.72
2019-03-23T02:23:44.305Z,32.67
2019-03-23T02:26:12.777Z,34.25
2019-03-23T02:28:41.303Z,35.55
2019-03-23T02:31:09.780Z,36.10
2019-03-23T02:33:38.395Z,30.43
2019-03-23T02:36:06.946Z,28.60
2019-03-23T02:38:35.406Z,32.03
2019-03-23T02:41:03.863Z,28.60
2019-03-23T02:43:32.396Z,28.00
2019-03-23T02:46:00.936Z,28.07
2019-03-23T02:48:29.404Z,30.35
2019-03-23T02:51:00.539Z,31.05
2019-03-23T02:53:29.100Z,30.75
2019-03-23T02:55:57.632Z,33.65
2019-03-23T02:58:26.452Z,33.90
2019-03-23T03:00:54.953Z,32.25
2019-03-23T03:03:23.428Z,29.85
2019-03-23T03:05:52.121Z,30.35
2019-03-23T03:08:20.855Z,31.57
2019-03-23T03:10:49.622Z,31.57
2019-03-23T03:13:18.319Z,32.00
2019-03-23T03:15:47.042Z,33.33
2019-03-23T03:18:15.487Z,36.35
2019-03-23T03:20:43.939Z,35.33
2019-03-23T03:23:12.745Z,31.05
2019-03-23T03:25:41.200Z,32.45
2019-03-23T03:28:09.637Z,30.52
2019-03-23T03:30:38.203Z,33.13
2019-03-23T03:33:06.714Z,29.82
2019-03-23T03:35:35.246Z,30.62
2019-03-23T03:38:03.690Z,28.92
2019-03-23T03:40:32.144Z,31.93
2019-03-23T03:43:00.581Z,29.32
2019-03-23T03:45:29.196Z,31.40
2019-03-23T03:48:00.677Z,30.02
2019-03-23T03:50:29.458Z,30.80
2019-03-23T03:52:57.989Z,28.75
2019-03-23T03:55:26.430Z,30.12
2019-03-23T03:57:54.961Z,30.15
2019-03-23T04:00:23.415Z,27.55
2019-03-23T04:02:52.265Z,31.65
2019-03-23T04:05:20.765Z,33.08
2019-03-23T04:07:49.202Z,27.22
2019-03-23T04:10:17.666Z,33.67
2019-03-23T04:12:46.379Z,30.00
2019-03-23T04:15:14.944Z,30.12
2019-03-23T04:17:43.376Z,33.33
2019-03-23T04:20:11.970Z,31.23
2019-03-23T04:22:40.669Z,34.03
2019-03-23T04:25:10.837Z,35.68
2019-03-23T04:27:39.359Z,34.58
2019-03-23T04:30:11.186Z,35.52
2019-03-23T04:32:39.617Z,33.38
2019-03-23T04:35:10.832Z,30.00
2019-03-23T04:37:39.277Z,30.10
2019-03-23T04:40:10.557Z,30.95
2019-03-23T04:42:39.869Z,33.45
2019-03-23T04:45:10.128Z,28.75
2019-03-23T04:47:38.628Z,27.62
2019-03-23T04:50:10.107Z,32.90
2019-03-23T04:52:38.898Z,34.40
2019-03-23T04:55:11.791Z,33.85
2019-03-23T04:57:40.894Z,38.85
2019-03-23T05:00:12.269Z,33.85
2019-03-23T05:02:40.730Z,33.28
2019-03-23T05:05:09.311Z,33.40
2019-03-23T05:07:37.771Z,36.17
2019-03-23T05:10:07.247Z,37.70
2019-03-23T05:12:35.710Z,36.13
2019-03-23T05:15:08.855Z,32.95
2019-03-23T05:17:37.288Z,31.75
2019-03-23T05:20:10.576Z,32.20
2019-03-23T05:22:39.366Z,30.32
2019-03-23T05:25:09.793Z,30.43
2019-03-23T05:27:38.248Z,29.35
2019-03-23T05:30:08.155Z,32.28
2019-03-23T05:32:36.660Z,37.85
2019-03-23T05:35:07.130Z,35.25
2019-03-23T05:37:35.559Z,39.23
2019-03-23T05:40:08.088Z,34.45
2019-03-23T05:42:36.699Z,32.03
2019-03-23T05:45:06.685Z,34.60
2019-03-23T05:47:35.134Z,33.13
2019-03-23T05:50:05.334Z,35.60
2019-03-23T05:52:34.094Z,36.68
2019-03-23T05:55:02.810Z,33.15
2019-03-23T05:57:31.505Z,35.08
2019-03-23T05:59:59.964Z,33.18
2019-03-23T06:02:28.400Z,36.05
2019-03-23T06:04:58.156Z,34.15
2019-03-23T06:07:26.589Z,37.98
2019-03-23T06:09:55.037Z,36.68
2019-03-23T06:12:23.749Z,31.62
2019-03-23T06:14:52.445Z,35.48
2019-03-23T06:17:20.908Z,34.23
2019-03-23T06:19:49.606Z,38.80
2019-03-23T06:22:18.056Z,44.83
2019-03-23T06:24:46.755Z,41.28
2019-03-23T06:27:18.288Z,44.53
2019-03-23T06:29:46.981Z,41.55
2019-03-23T06:32:15.608Z,37.53
2019-03-23T06:34:48.683Z,35.60
2019-03-23T06:37:17.112Z,38.30
2019-03-23T06:39:45.834Z,36.53
2019-03-23T06:42:14.265Z,39.03
2019-03-23T06:44:42.989Z,40.35
2019-03-23T06:47:11.425Z,40.67
2019-03-23T06:49:41.116Z,37.60
2019-03-23T06:52:09.561Z,37.50
2019-03-23T06:54:38.298Z,47.60
2019-03-23T06:57:06.743Z,46.25
2019-03-23T06:59:35.463Z,55.43
2019-03-23T07:02:03.960Z,70.05
2019-03-23T07:04:32.428Z,72.65
2019-03-23T07:07:00.875Z,63.38
2019-03-23T07:09:29.316Z,58.83
2019-03-23T07:11:57.770Z,58.15
2019-03-23T07:14:26.477Z,55.90
2019-03-23T07:16:54.948Z,49.27
2019-03-23T07:19:23.381Z,44.48
2019-03-23T07:21:52.098Z,48.58
2019-03-23T07:24:20.536Z,41.92
2019-03-23T07:26:49.245Z,43.63
2019-03-23T07:29:17.673Z,40.40
2019-03-23T07:31:46.397Z,33.60
2019-03-23T07:34:14.849Z,38.38
2019-03-23T07:36:44.856Z,37.20
2019-03-23T07:39:13.288Z,34.48
2019-03-23T07:41:41.743Z,35.03
2019-03-23T07:44:10.194Z,34.10
2019-03-23T07:46:38.638Z,31.75
2019-03-23T07:49:07.485Z,31.50
2019-03-23T07:51:35.967Z,33.80
2019-03-23T07:54:04.504Z,30.32
2019-03-23T07:56:32.937Z,27.58
2019-03-23T07:59:01.419Z,28.57
2019-03-23T08:01:29.917Z,29.92
2019-03-23T08:03:58.384Z,30.52
2019-03-23T08:06:26.828Z,30.27
2019-03-23T08:08:55.310Z,29.25
2019-03-23T08:11:23.749Z,31.50
2019-03-23T08:13:52.178Z,36.23
2019-03-23T08:16:20.885Z,29.20
2019-03-23T08:18:49.658Z,30.95
2019-03-23T08:21:18.130Z,30.65
2019-03-23T08:23:46.821Z,33.45
2019-03-23T08:26:15.286Z,33.05
2019-03-23T08:28:43.983Z,36.10
2019-03-23T08:31:12.696Z,30.65
2019-03-23T08:33:41.140Z,30.43
2019-03-23T08:36:09.855Z,30.92
2019-03-23T08:38:38.294Z,33.00
2019-03-23T08:41:06.753Z,27.45
2019-03-23T08:43:35.477Z,31.40
2019-03-23T08:46:04.212Z,29.77
2019-03-23T08:48:32.963Z,32.70
2019-03-23T08:51:01.454Z,32.25
2019-03-23T08:53:30.149Z,36.68
2019-03-23T08:55:58.636Z,38.00
2019-03-23T08:58:28.695Z,40.85
2019-03-23T09:00:58.722Z,33.53
2019-03-23T09:03:27.189Z,36.20
2019-03-23T09:05:55.881Z,40.60
2019-03-23T09:08:24.417Z,43.87
2019-03-23T09:10:52.860Z,37.33
2019-03-23T09:13:21.319Z,33.83
2019-03-23T09:15:50.019Z,37.55
2019-03-23T09:18:18.516Z,41.85
2019-03-23T09:20:47.057Z,36.65
2019-03-23T09:23:15.508Z,34.45
2019-03-23T09:25:47.584Z,36.38
2019-03-23T09:28:16.024Z,34.65
2019-03-23T09:30:44.741Z,33.85
2019-03-23T09:33:13.192Z,34.43
2019-03-23T09:35:41.901Z,36.68
2019-03-23T09:38:10.341Z,37.60
2019-03-23T09:40:38.801Z,35.33
2019-03-23T09:43:07.302Z,37.15
2019-03-23T09:45:36.031Z,37.38
2019-03-23T09:48:04.469Z,38.85
2019-03-23T09:50:32.955Z,33.53
2019-03-23T09:53:01.817Z,33.42
2019-03-23T09:55:31.361Z,34.05
2019-03-23T09:57:59.829Z,36.95
2019-03-23T10:00:28.273Z,37.88
2019-03-23T10:02:56.992Z,35.80
2019-03-23T10:05:25.694Z,37.70
2019-03-23T10:07:54.426Z,34.00
2019-03-23T10:10:22.859Z,35.48
2019-03-23T10:12:51.589Z,33.55
2019-03-23T10:15:20.033Z,38.60
2019-03-23T10:17:48.469Z,37.08
2019-03-23T10:20:16.936Z,41.48
2019-03-23T10:22:45.641Z,39.30
2019-03-23T10:25:14.100Z,35.23
2019-03-23T10:27:42.550Z,39.25
2019-03-23T10:30:12.014Z,35.73
2019-03-23T10:32:40.716Z,38.50
2019-03-23T10:35:10.716Z,38.02
2019-03-23T10:37:39.225Z,38.75
2019-03-23T10:40:10.261Z,33.05
2019-03-23T10:42:38.769Z,35.15
2019-03-23T10:45:08.252Z,35.83
2019-03-23T10:47:37.084Z,40.48
2019-03-23T10:50:06.991Z,40.15
2019-03-23T10:52:35.799Z,39.00
2019-03-23T10:55:06.530Z,38.45
2019-03-23T10:57:34.991Z,36.15
2019-03-23T11:00:05.702Z,39.25
2019-03-23T11:02:34.413Z,36.28
2019-03-23T11:05:03.579Z,38.28
2019-03-23T11:07:32.329Z,41.95
2019-03-23T11:10:00.774Z,38.20
2019-03-23T11:12:29.496Z,39.55
2019-03-23T11:14:57.950Z,39.67
2019-03-23T11:17:26.415Z,35.88
2019-03-23T11:19:54.869Z,41.70
2019-03-23T11:22:23.345Z,39.23
2019-03-23T11:24:52.045Z,37.28
2019-03-23T11:27:20.739Z,41.63
2019-03-23T11:29:49.458Z,38.35
2019-03-23T11:32:17.888Z,41.40
2019-03-23T11:34:46.597Z,41.00
2019-03-23T11:37:15.090Z,40.78
2019-03-23T11:39:43.577Z,35.90
2019-03-23T11:42:12.284Z,41.77
2019-03-23T11:44:40.818Z,43.40
2019-03-23T11:47:09.372Z,39.18
2019-03-23T11:49:37.822Z,42.27
2019-03-23T11:52:06.265Z,37.30
2019-03-23T11:54:35.009Z,38.58
2019-03-23T11:57:03.784Z,41.98
2019-03-23T11:59:32.299Z,38.65
2019-03-23T12:02:00.755Z,36.73
2019-03-23T12:04:29.197Z,38.78
2019-03-23T12:06:57.915Z,41.23
2019-03-23T12:09:26.620Z,39.83
2019-03-23T12:11:55.078Z,37.40
2019-03-23T12:14:42.059Z,38.20
2019-03-23T12:17:10.517Z,44.63
2019-03-23T12:19:39.241Z,43.55
2019-03-23T12:22:07.952Z,39.63
2019-03-23T12:24:36.405Z,39.73
2019-03-23T12:27:25.970Z,41.18
2019-03-23T12:29:54.453Z,36.88
2019-03-23T12:32:22.952Z,39.58
2019-03-23T12:34:51.669Z,34.95
2019-03-23T12:37:20.125Z,33.60
2019-03-23T12:39:48.586Z,33.30
2019-03-23T12:42:17.345Z,35.23
2019-03-23T12:44:45.829Z,38.10
2019-03-23T12:47:14.341Z,34.65
2019-03-23T12:49:42.780Z,32.65
2019-03-23T12:52:11.240Z,34.43
2019-03-23T12:54:49.134Z,34.85
2019-03-23T12:57:17.594Z,37.70
2019-03-23T12:59:46.284Z,36.60
2019-03-23T13:02:14.741Z,39.90
2019-03-23T13:04:43.204Z,36.80
2019-03-23T13:07:12.316Z,32.90
2019-03-23T13:09:43.664Z,35.83
2019-03-23T13:12:12.382Z,36.33
2019-03-23T13:14:40.825Z,39.60
2019-03-23T13:17:09.562Z,32.10
2019-03-23T13:19:38.666Z,33.40
2019-03-23T13:22:07.367Z,39.23
2019-03-23T13:24:36.076Z,33.85
2019-03-23T13:27:04.584Z,30.55
2019-03-23T13:29:33.299Z,34.35
2019-03-23T13:32:11.038Z,37.58
2019-03-23T13:34:39.572Z,37.08
2019-03-23T13:37:08.020Z,36.17
2019-03-23T13:39:36.501Z,37.58
2019-03-23T13:42:05.016Z,34.55
2019-03-23T13:44:33.487Z,31.90
2019-03-23T13:47:01.965Z,33.75
2019-03-23T13:49:30.445Z,30.60
2019-03-23T13:51:58.904Z,29.35
2019-03-23T13:54:27.345Z,30.88
2019-03-23T13:56:55.804Z,28.75
2019-03-23T13:59:24.512Z,37.42
2019-03-23T14:01:52.972Z,32.55
2019-03-23T14:04:21.414Z,30.82
2019-03-23T14:06:49.869Z,31.57
2019-03-23T14:09:18.313Z,31.27
2019-03-23T14:11:54.647Z,34.75
2019-03-23T14:14:17.201Z,32.88
2019-03-23T14:16:45.901Z,28.80
2019-03-23T14:19:14.359Z,34.35
2019-03-23T14:21:42.806Z,30.10
2019-03-23T14:24:11.261Z,29.32
2019-03-23T14:26:40.797Z,26.00
2019-03-23T14:29:09.337Z,31.50
2019-03-23T14:31:37.782Z,31.15
2019-03-23T14:34:06.492Z,33.58
2019-03-23T14:36:34.934Z,29.87
2019-03-23T14:39:05.046Z,31.82
2019-03-23T14:41:33.744Z,32.30
2019-03-23T14:44:02.519Z,33.18
2019-03-23T14:46:57.996Z,28.25
2019-03-23T14:49:26.693Z,28.38
2019-03-23T14:51:55.154Z,29.27
2019-03-23T14:54:23.872Z,28.62
2019-03-23T14:56:52.321Z,29.40
2019-03-23T14:59:21.092Z,30.95
2019-03-23T15:01:49.552Z,31.25
2019-03-23T15:04:18.260Z,32.05
2019-03-23T15:06:46.984Z,29.55
2019-03-23T15:09:15.420Z,31.65
2019-03-23T15:11:43.883Z,30.97
2019-03-23T15:14:18.084Z,29.87
2019-03-23T15:16:46.544Z,28.98
2019-03-23T15:19:15.751Z,32.05
2019-03-23T15:21:44.316Z,28.55
2019-03-23T15:24:13.013Z,32.13
2019-03-23T15:26:41.465Z,31.15
2019-03-23T15:29:14.594Z,27.52
2019-03-23T15:31:40.129Z,32.00
2019-03-23T15:34:08.962Z,30.88
2019-03-23T15:36:37.432Z,29.42
2019-03-23T15:39:07.733Z,30.88
2019-03-23T15:41:36.240Z,27.70
2019-03-23T15:44:07.161Z,31.50
2019-03-23T15:46:35.861Z,31.37
2019-03-23T15:49:04.389Z,32.50
2019-03-23T15:51:32.837Z,31.52
2019-03-23T15:54:01.314Z,32.58
2019-03-23T15:56:29.821Z,29.12
2019-03-23T15:58:58.273Z,29.70
2019-03-23T16:01:26.737Z,29.82
2019-03-23T16:03:55.498Z,30.10
2019-03-23T16:06:23.957Z,28.10
2019-03-23T16:08:52.393Z,27.35
2019-03-23T16:11:20.856Z,26.60
2019-03-23T16:13:49.544Z,29.95
2019-03-23T16:16:21.351Z,32.42
2019-03-23T16:18:49.803Z,30.80
2019-03-23T16:21:18.274Z,34.73
2019-03-23T16:23:47.178Z,29.07
2019-03-23T16:26:15.616Z,27.75
2019-03-23T16:28:46.184Z,30.30
2019-03-23T16:31:14.884Z,27.17
2019-03-23T16:33:46.182Z,28.80
2019-03-23T16:36:14.634Z,25.77
2019-03-23T16:38:43.102Z,23.27
2019-03-23T16:41:14.473Z,25.82
2019-03-23T16:43:42.932Z,25.95
2019-03-23T16:46:11.378Z,25.17
2019-03-23T16:48:39.839Z,29.37
2019-03-23T16:51:08.539Z,28.65
2019-03-23T16:53:37.321Z,31.50
2019-03-23T16:56:06.102Z,36.33
2019-03-23T16:58:34.844Z,34.60
2019-03-23T17:01:03.277Z,38.05
2019-03-23T17:03:31.981Z,38.23
2019-03-23T17:06:00.445Z,37.70
2019-03-23T17:08:28.879Z,37.20
2019-03-23T17:10:57.347Z,35.52
2019-03-23T17:13:26.049Z,37.53
2019-03-23T17:15:54.509Z,39.48
2019-03-23T17:18:22.959Z,39.35
2019-03-23T17:20:52.691Z,38.20
2019-03-23T17:23:21.149Z,35.13
2019-03-23T17:25:49.609Z,39.03
2019-03-23T17:28:18.057Z,37.10
2019-03-23T17:30:46.622Z,42.05
2019-03-23T17:33:15.061Z,42.03
2019-03-23T17:35:43.761Z,44.73
2019-03-23T17:38:12.216Z,46.10
2019-03-23T17:40:40.660Z,51.18
2019-03-23T17:43:09.128Z,52.35
2019-03-23T17:45:37.826Z,47.70
2019-03-23T17:48:06.611Z,45.98
2019-03-23T17:50:35.055Z,44.45
2019-03-23T17:53:03.844Z,47.95
2019-03-23T17:55:32.268Z,52.10
2019-03-23T17:58:00.740Z,49.48
2019-03-23T18:00:29.969Z,50.43
2019-03-23T18:02:58.787Z,47.65
2019-03-23T18:05:27.282Z,47.95
2019-03-23T18:07:56.019Z,51.35
2019-03-23T18:10:24.885Z,48.50
2019-03-23T18:12:53.488Z,51.70
2019-03-23T18:15:22.750Z,50.70
2019-03-23T18:17:51.342Z,53.08
2019-03-23T18:20:19.833Z,46.88
2019-03-23T18:22:48.269Z,47.20
2019-03-23T18:25:20.699Z,50.90
2019-03-23T18:27:49.243Z,49.55
2019-03-23T18:30:40.032Z,51.58
2019-03-23T18:33:08.984Z,51.45
2019-03-23T18:35:37.478Z,50.78
2019-03-23T18:38:06.056Z,50.45
2019-03-23T18:40:35.004Z,48.98
2019-03-23T18:43:03.510Z,51.50
2019-03-23T18:45:32.662Z,50.15
2019-03-23T18:48:03.259Z,48.55
2019-03-23T18:50:32.040Z,52.98
2019-03-23T18:53:00.762Z,53.23
2019-03-23T18:55:29.196Z,51.83
2019-03-23T18:57:58.036Z,53.08
2019-03-23T19:00:38.796Z,49.55
2019-03-23T19:03:07.412Z,49.50
2019-03-23T19:05:36.749Z,52.05
2019-03-23T19:08:05.697Z,49.85
2019-03-23T19:10:34.141Z,48.60
2019-03-23T19:13:04.459Z,48.25
2019-03-23T19:15:33.173Z,45.52
2019-03-23T19:18:01.963Z,47.58
2019-03-23T19:20:33.941Z,47.67
2019-03-23T19:23:02.649Z,51.18
2019-03-23T19:25:34.041Z,49.13
2019-03-23T19:28:02.485Z,50.23
2019-03-23T19:30:30.946Z,50.25
2019-03-23T19:32:59.641Z,48.58
2019-03-23T19:35:28.095Z,53.05
2019-03-23T19:37:56.551Z,47.80
2019-03-23T19:40:27.975Z,49.80
2019-03-23T19:42:56.403Z,54.18
2019-03-23T19:45:25.450Z,49.03
2019-03-23T19:47:54.152Z,49.48
2019-03-23T19:50:22.596Z,48.23
2019-03-23T19:52:51.058Z,48.13
2019-03-23T19:55:19.506Z,47.45
2019-03-23T19:57:47.965Z,48.25
2019-03-23T20:00:16.540Z,48.38
2019-03-23T20:02:45.249Z,48.05
2019-03-23T20:05:18.016Z,48.20
2019-03-23T20:07:46.484Z,49.93
2019-03-23T20:10:16.211Z,45.88
2019-03-23T20:12:44.934Z,52.67
2019-03-23T20:15:14.305Z,46.42
2019-03-23T20:17:42.774Z,46.33
2019-03-23T20:20:12.054Z,45.78
2019-03-23T20:22:42.539Z,45.05
2019-03-23T20:25:11.277Z,46.85
2019-03-23T20:27:39.720Z,47.88
2019-03-23T20:30:11.423Z,46.98
2019-03-23T20:32:39.945Z,45.75
2019-03-23T20:35:09.238Z,43.85
2019-03-23T20:37:38.537Z,46.58
2019-03-23T20:40:09.096Z,45.23
2019-03-23T20:42:37.537Z,48.35
2019-03-23T20:45:07.554Z,49.15
2019-03-23T20:47:36.964Z,46.68
2019-03-23T20:50:08.476Z,45.50
2019-03-23T20:52:37.545Z,44.33
2019-03-23T20:55:08.419Z,39.75
2019-03-23T20:57:42.456Z,44.25
2019-03-23T21:00:11.053Z,43.85
2019-03-23T21:02:39.746Z,46.28
2019-03-23T21:05:08.210Z,47.70
2019-03-23T21:07:36.704Z,42.65
2019-03-23T21:10:06.585Z,47.40
2019-03-23T21:12:35.022Z,45.78
2019-03-23T21:15:04.266Z,44.63
2019-03-23T21:17:32.950Z,41.20
2019-03-23T21:20:01.421Z,47.40
2019-03-23T21:22:30.140Z,46.02
2019-03-23T21:24:58.878Z,45.95
2019-03-23T21:27:27.637Z,39.95
2019-03-23T21:29:56.075Z,39.40
2019-03-23T21:32:43.230Z,42.85
2019-03-23T21:35:11.809Z,40.28
2019-03-23T21:37:40.500Z,40.52
2019-03-23T21:40:09.881Z,44.93
2019-03-23T21:42:38.340Z,44.63
2019-03-23T21:45:08.221Z,44.70
2019-03-23T21:47:36.701Z,39.75
2019-03-23T21:50:07.451Z,41.15
2019-03-23T21:52:36.215Z,44.05
2019-03-23T21:55:06.507Z,45.48
2019-03-23T21:57:35.120Z,47.13
2019-03-23T22:00:04.633Z,37.25
2019-03-23T22:02:33.056Z,38.28
2019-03-23T22:05:01.516Z,37.83
2019-03-23T22:07:29.948Z,38.20
2019-03-23T22:09:58.403Z,37.20
2019-03-23T22:12:26.851Z,39.18
2019-03-23T22:14:55.301Z,38.80
2019-03-23T22:17:23.742Z,40.67
2019-03-23T22:19:52.190Z,38.58
2019-03-23T22:22:20.898Z,38.70
2019-03-23T22:24:49.370Z,43.02
2019-03-23T22:27:19.175Z,42.23
2019-03-23T22:29:47.956Z,39.65
2019-03-23T22:32:16.661Z,36.25
2019-03-23T22:34:45.359Z,37.42
2019-03-23T22:37:14.085Z,37.35
2019-03-23T22:39:42.839Z,40.35
2019-03-23T22:42:11.625Z,36.68
2019-03-23T22:44:40.059Z,33.85
2019-03-23T22:47:08.541Z,32.45
2019-03-23T22:49:37.336Z,38.80
2019-03-23T22:52:05.849Z,41.90
2019-03-23T22:54:34.544Z,38.25
2019-03-23T22:57:03.263Z,39.13
2019-03-23T22:59:31.771Z,34.43
2019-03-23T23:02:00.280Z,38.63
2019-03-23T23:04:29.034Z,36.65
2019-03-23T23:06:57.479Z,40.75
2019-03-23T23:09:25.948Z,39.60
2019-03-23T23:11:54.396Z,39.05
2019-03-23T23:14:24.204Z,37.38
2019-03-23T23:16:52.648Z,38.00
2019-03-23T23:19:21.094Z,41.37
2019-03-23T23:21:49.547Z,39.53
2019-03-23T23:24:18.243Z,37.17
2019-03-23T23:26:46.700Z,37.65
2019-03-23T23:29:15.140Z,31.95
2019-03-23T23:31:43.593Z,31.93
2019-03-23T23:34:12.293Z,35.35
2019-03-23T23:36:40.749Z,35.33
2019-03-23T23:39:09.473Z,39.75
2019-03-23T23:41:38.176Z,40.17
2019-03-23T23:44:06.876Z,36.80
2019-03-23T23:46:35.341Z,36.30
2019-03-23T23:49:03.787Z,36.35
2019-03-23T23:51:32.499Z,37.03
2019-03-23T23:54:00.932Z,39.85
2019-03-23T23:56:29.392Z,34.48
2019-03-23T23:58:58.297Z,35.85
